Time;durP1;ratioP1;P1;durP2;ratioP2;P2;SDS_P1;SDS_P2;PMS_P1;PMS_P2;Temp;Humidity;BMP_temperature;BMP_pressure;BME280_temperature;BME280_humidity;BME280_pressure;Samples;Min_cycle;Max_cycle;Signal;HPM_P1;HPM_P2
2023/03/27 00:01:15;;;;;;;3.92;2.22;;;7.00;99.90;;;;;;4991006;28;20070;-75
2023/03/27 00:03:41;;;;;;;3.78;1.80;;;7.00;99.90;;;;;;4987542;28;20026;-75
2023/03/27 00:06:15;;;;;;;3.72;2.03;;;7.10;99.90;;;;;;4990412;28;20034;-75
2023/03/27 00:08:42;;;;;;;4.73;1.70;;;7.20;99.90;;;;;;4991315;28;20113;-75
2023/03/27 00:11:07;;;;;;;3.10;1.38;;;7.00;99.90;;;;;;4982676;28;20364;-75
2023/03/27 00:13:34;;;;;;;3.60;1.92;;;6.80;99.90;;;;;;4989190;28;20141;-75
2023/03/27 00:15:59;;;;;;;3.22;1.50;;;6.80;99.90;;;;;;4992176;28;20032;-75
2023/03/27 00:18:27;;;;;;;2.67;1.48;;;6.80;99.90;;;;;;4991836;28;20026;-75
2023/03/27 00:20:53;;;;;;;3.33;1.40;;;6.80;99.90;;;;;;4992734;28;20518;-75
2023/03/27 00:23:19;;;;;;;4.72;1.63;;;6.80;99.90;;;;;;4990478;28;20038;-75
2023/03/27 00:25:49;;;;;;;3.03;1.42;;;6.70;99.90;;;;;;4992090;28;20035;-75
2023/03/27 00:28:16;;;;;;;8.40;1.75;;;6.70;99.90;;;;;;4991892;28;20030;-75
2023/03/27 00:30:42;;;;;;;2.65;1.17;;;6.70;99.90;;;;;;4991305;28;20556;-75
2023/03/27 00:33:10;;;;;;;2.30;1.17;;;6.80;99.90;;;;;;4989281;28;20039;-75
2023/03/27 00:35:36;;;;;;;3.35;1.17;;;6.90;99.90;;;;;;4991824;28;20034;-75
2023/03/27 00:38:02;;;;;;;1.70;0.90;;;6.80;99.90;;;;;;4992171;28;20044;-75
2023/03/27 00:40:27;;;;;;;1.60;0.90;;;6.70;99.90;;;;;;4989218;28;20033;-75
2023/03/27 00:42:56;;;;;;;3.13;1.17;;;6.70;99.90;;;;;;4975672;28;20034;-75
2023/03/27 00:45:28;;;;;;;2.30;1.05;;;6.70;99.90;;;;;;4991218;28;20042;-75
2023/03/27 00:47:59;;;;;;;2.05;0.75;;;6.70;99.90;;;;;;4992033;28;20031;-75
2023/03/27 00:50:31;;;;;;;1.42;0.95;;;6.60;99.90;;;;;;4991286;28;20030;-75
2023/03/27 00:53:03;;;;;;;2.35;1.17;;;6.60;99.90;;;;;;4989630;28;20096;-75
2023/03/27 00:55:32;;;;;;;5.28;1.45;;;6.50;99.90;;;;;;4990083;28;20035;-75
2023/03/27 00:58:04;;;;;;;2.75;1.02;;;6.30;99.90;;;;;;4987760;28;20045;-75
2023/03/27 01:00:32;;;;;;;4.00;1.27;;;6.30;99.90;;;;;;4992003;28;20404;-75
2023/03/27 01:02:59;;;;;;;2.80;1.60;;;6.30;99.90;;;;;;4990314;28;20030;-75
2023/03/27 01:05:26;;;;;;;2.28;1.35;;;6.20;99.90;;;;;;4980563;28;20038;-75
2023/03/27 01:07:52;;;;;;;2.47;1.13;;;6.20;99.90;;;;;;4984083;28;20076;-75
2023/03/27 01:10:19;;;;;;;1.58;1.00;;;6.10;99.90;;;;;;4996883;28;20093;-75
2023/03/27 01:13:35;;;;;;;3.15;1.10;;;6.00;99.90;;;;;;4996229;28;20555;-75
2023/03/27 01:16:06;;;;;;;;;;;6.00;99.90;;;;;;4955292;29;20042;-75
2023/03/27 01:18:58;;;;;;;1.77;0.98;;;6.20;99.90;;;;;;4991297;28;20396;-75
2023/03/27 01:21:45;;;;;;;3.60;1.00;;;6.20;99.90;;;;;;4992834;28;20492;-75
2023/03/27 01:24:26;;;;;;;2.28;0.88;;;6.20;99.90;;;;;;4995489;28;20041;-75
2023/03/27 01:27:17;;;;;;;2.05;0.80;;;6.20;99.90;;;;;;4995221;28;20038;-75
2023/03/27 01:30:04;;;;;;;2.42;0.88;;;6.10;99.90;;;;;;4994538;28;20026;-75
2023/03/27 01:32:51;;;;;;;1.80;1.02;;;6.10;99.90;;;;;;4994820;28;20526;-75
2023/03/27 01:35:32;;;;;;;3.35;0.93;;;5.90;99.90;;;;;;4995219;28;20512;-75
2023/03/27 01:38:16;;;;;;;1.83;0.75;;;5.80;99.90;;;;;;4993269;28;20030;-75
2023/03/27 01:40:50;;;;;;;3.20;1.55;;;5.90;99.90;;;;;;4992313;28;20051;-75
2023/03/27 01:43:24;;;;;;;4.10;1.55;;;6.40;99.90;;;;;;4991817;28;20550;-75
2023/03/27 01:46:08;;;;;;;3.20;1.70;;;6.60;99.90;;;;;;4993070;28;20515;-75
2023/03/27 01:48:48;;;;;;;3.67;1.70;;;6.70;99.90;;;;;;4992518;28;20034;-75
2023/03/27 01:51:26;;;;;;;3.70;1.80;;;6.80;99.90;;;;;;4985267;28;20089;-75
2023/03/27 01:54:00;;;;;;;2.80;1.38;;;6.70;99.90;;;;;;4981555;28;20053;-75
2023/03/27 01:56:36;;;;;;;3.60;1.65;;;6.20;99.90;;;;;;4994985;28;20540;-75
2023/03/27 01:59:15;;;;;;;3.28;1.48;;;6.10;99.90;;;;;;4990734;28;20046;-75
2023/03/27 02:01:45;;;;;;;3.20;1.60;;;6.20;99.90;;;;;;4993614;28;20088;-75
2023/03/27 02:04:19;;;;;;;3.33;1.70;;;6.50;99.90;;;;;;4990756;28;20429;-75
2023/03/27 02:06:50;;;;;;;;;;;6.50;99.90;;;;;;4993109;28;20042;-75
2023/03/27 02:09:29;;;;;;;2.83;1.42;;;6.50;99.90;;;;;;4991722;28;19917;-75
2023/03/27 02:12:01;;;;;;;3.00;1.48;;;6.70;99.90;;;;;;4993644;28;20034;-75
2023/03/27 02:14:35;;;;;;;2.90;1.35;;;6.60;99.90;;;;;;4991925;28;20392;-75
2023/03/27 02:17:09;;;;;;;5.63;1.65;;;6.60;99.90;;;;;;4992537;28;20108;-75
2023/03/27 02:19:46;;;;;;;3.63;1.70;;;6.50;99.90;;;;;;4993310;28;20412;-75
2023/03/27 02:22:13;;;;;;;3.50;1.80;;;6.50;99.90;;;;;;4995175;28;20038;-75
2023/03/27 02:24:40;;;;;;;3.47;2.00;;;6.70;99.90;;;;;;4993824;28;20048;-75
2023/03/27 02:27:32;;;;;;;4.35;2.15;;;6.70;99.90;;;;;;4994428;28;20038;-75
2023/03/27 02:30:17;;;;;;;3.20;1.70;;;6.60;99.90;;;;;;4993004;28;20030;-75
2023/03/27 02:33:07;;;;;;;3.63;1.75;;;6.40;99.90;;;;;;4991510;28;20049;-75
2023/03/27 02:35:44;;;;;;;7.07;2.90;;;6.30;99.90;;;;;;4992486;28;20041;-75
2023/03/27 02:38:40;;;;;;;5.70;1.95;;;6.20;99.90;;;;;;4993325;28;20054;-75
2023/03/27 02:41:29;;;;;;;6.00;1.75;;;6.00;99.90;;;;;;4991523;28;20022;-75
2023/03/27 02:44:30;;;;;;;2.92;1.50;;;6.00;99.90;;;;;;4991835;28;20019;-75
2023/03/27 02:47:21;;;;;;;5.32;1.55;;;6.00;99.90;;;;;;4984409;28;20062;-75
2023/03/27 02:50:00;;;;;;;3.88;2.03;;;6.30;99.90;;;;;;4987872;28;20030;-75
2023/03/27 02:52:32;;;;;;;4.20;1.58;;;6.40;99.90;;;;;;4993741;28;20076;-74
2023/03/27 02:55:05;;;;;;;5.43;2.05;;;6.40;99.90;;;;;;4992904;28;20027;-75
2023/03/27 02:57:38;;;;;;;2.72;1.50;;;6.40;99.90;;;;;;4992224;28;20080;-75
2023/03/27 03:00:24;;;;;;;4.28;1.60;;;6.20;99.90;;;;;;4990791;28;20051;-72
2023/03/27 03:02:57;;;;;;;2.78;1.40;;;6.10;99.90;;;;;;4988934;28;20030;-74
2023/03/27 03:05:24;;;;;;;2.60;1.37;;;6.00;99.90;;;;;;4987260;28;20038;-73
2023/03/27 03:07:53;;;;;;;2.83;1.25;;;5.90;99.90;;;;;;4986511;28;20092;-73
2023/03/27 03:10:20;;;;;;;2.35;1.40;;;5.90;99.90;;;;;;4988660;28;20077;-73
2023/03/27 03:12:46;;;;;;;2.17;1.20;;;5.90;99.90;;;;;;4986720;28;20502;-73
2023/03/27 03:15:12;;;;;;;3.67;1.40;;;6.00;99.90;;;;;;4988987;28;20069;-73
2023/03/27 03:17:37;;;;;;;4.25;1.50;;;5.90;99.90;;;;;;4980954;28;20104;-73
2023/03/27 03:20:04;;;;;;;2.47;1.42;;;6.10;99.90;;;;;;4979235;28;20031;-73
2023/03/27 03:22:30;;;;;;;4.35;1.58;;;6.20;99.90;;;;;;4980085;28;20034;-73
2023/03/27 03:24:56;;;;;;;2.20;1.10;;;6.00;99.90;;;;;;4988829;28;20431;-73
2023/03/27 03:27:22;;;;;;;3.33;1.65;;;5.90;99.90;;;;;;4988101;28;20130;-73
2023/03/27 03:29:48;;;;;;;2.72;1.17;;;5.90;99.90;;;;;;4989281;28;20026;-73
2023/03/27 03:32:14;;;;;;;3.10;1.45;;;5.80;99.90;;;;;;4987684;28;20031;-73
2023/03/27 03:34:45;;;;;;;3.40;1.33;;;5.80;99.90;;;;;;4988979;28;20037;-73
2023/03/27 03:37:11;;;;;;;1.98;1.00;;;5.70;99.90;;;;;;4981779;28;20027;-73
2023/03/27 03:39:37;;;;;;;4.07;1.63;;;5.50;99.90;;;;;;4983175;28;20472;-73
2023/03/27 03:42:03;;;;;;;4.13;1.75;;;5.50;99.90;;;;;;4986422;28;20032;-73
2023/03/27 03:44:29;;;;;;;1.80;1.00;;;5.60;99.90;;;;;;4988375;28;20038;-73
2023/03/27 03:46:54;;;;;;;4.72;1.88;;;5.80;99.90;;;;;;4986889;28;20042;-73
2023/03/27 03:49:20;;;;;;;5.70;1.98;;;5.80;99.90;;;;;;4987635;28;20372;-73
2023/03/27 03:51:46;;;;;;;2.88;1.42;;;5.90;99.90;;;;;;4986730;28;20413;-73
2023/03/27 03:54:12;;;;;;;5.03;2.00;;;5.80;99.90;;;;;;4987101;28;20061;-73
2023/03/27 03:56:40;;;;;;;3.53;1.45;;;5.80;99.90;;;;;;4987919;28;20038;-73
2023/03/27 03:59:10;;;;;;;2.53;1.10;;;5.50;99.90;;;;;;4983945;28;20054;-73
2023/03/27 04:01:36;;;;;;;2.33;0.90;;;5.40;99.90;;;;;;4979413;28;20149;-73
2023/03/27 04:04:03;;;;;;;3.17;0.93;;;5.20;99.90;;;;;;4988289;28;20037;-73
2023/03/27 04:06:31;;;;;;;4.43;1.42;;;5.20;99.90;;;;;;4984255;28;20042;-74
2023/03/27 04:08:57;;;;;;;3.38;1.73;;;5.10;99.90;;;;;;4986770;28;20038;-75
2023/03/27 04:11:23;;;;;;;3.30;1.20;;;5.20;99.90;;;;;;4986573;28;20034;-75
2023/03/27 04:13:49;;;;;;;2.70;1.50;;;5.20;99.90;;;;;;4984710;28;20369;-75
2023/03/27 04:16:15;;;;;;;3.53;1.90;;;5.30;99.90;;;;;;4987316;28;20503;-74
2023/03/27 04:18:41;;;;;;;3.95;1.40;;;5.40;99.90;;;;;;4986433;28;20034;-74
2023/03/27 04:21:13;;;;;;;2.67;1.48;;;5.30;99.90;;;;;;4985822;28;20022;-75
2023/03/27 04:23:44;;;;;;;2.13;1.15;;;5.30;99.90;;;;;;4987660;28;20031;-74
2023/03/27 04:26:11;;;;;;;3.20;1.48;;;5.20;99.90;;;;;;4985914;28;20043;-74
2023/03/27 04:28:37;;;;;;;4.55;2.42;;;5.20;99.90;;;;;;4968918;28;20035;-75
2023/03/27 04:31:05;;;;;;;5.35;2.50;;;5.20;99.90;;;;;;4982035;28;20038;-75
2023/03/27 04:33:33;;;;;;;5.80;2.90;;;5.10;99.90;;;;;;4987927;28;20113;-75
2023/03/27 04:35:59;;;;;;;4.03;1.85;;;5.20;99.90;;;;;;4987476;28;20590;-77
2023/03/27 04:38:27;;;;;;;6.03;3.28;;;5.10;99.90;;;;;;4987692;28;20062;-77
2023/03/27 04:40:53;;;;;;;5.28;2.97;;;5.10;99.90;;;;;;4985249;28;20030;-77
2023/03/27 04:43:20;;;;;;;5.68;2.65;;;5.10;99.90;;;;;;4989243;28;20556;-75
2023/03/27 04:45:47;;;;;;;6.93;4.10;;;5.00;99.90;;;;;;4989181;28;20121;-75
2023/03/27 04:48:13;;;;;;;5.60;3.08;;;5.00;99.90;;;;;;4979897;28;20042;-74
2023/03/27 04:50:51;;;;;;;5.75;2.75;;;5.10;99.90;;;;;;4979708;28;20512;-74
2023/03/27 04:53:22;;;;;;;6.05;3.15;;;4.90;99.90;;;;;;4989555;28;20115;-76
2023/03/27 04:55:49;;;;;;;6.90;2.90;;;4.90;99.90;;;;;;4990946;28;20088;-77
2023/03/27 04:58:17;;;;;;;5.93;2.65;;;4.80;99.90;;;;;;4991449;28;20520;-74
2023/03/27 05:00:49;;;;;;;5.05;2.75;;;4.80;99.90;;;;;;4987880;28;20973;-75
2023/03/27 05:03:17;;;;;;;7.25;3.60;;;4.90;99.90;;;;;;4991371;28;20520;-74
2023/03/27 05:05:48;;;;;;;7.18;4.00;;;5.00;99.90;;;;;;4990601;28;20129;-74
2023/03/27 05:08:14;;;;;;;6.50;3.78;;;5.00;99.90;;;;;;4988809;28;20385;-75
2023/03/27 05:10:40;;;;;;;8.80;3.55;;;5.00;99.90;;;;;;4989782;28;20034;-77
2023/03/27 05:13:06;;;;;;;5.07;2.80;;;5.00;99.90;;;;;;4990843;28;20038;-75
2023/03/27 05:15:32;;;;;;;5.25;2.88;;;5.00;99.90;;;;;;4990404;28;20027;-75
2023/03/27 05:17:59;;;;;;;7.78;3.33;;;5.00;99.90;;;;;;4988843;28;20069;-75
2023/03/27 05:20:26;;;;;;;6.63;3.00;;;5.10;99.90;;;;;;4978435;28;20030;-74
2023/03/27 05:22:53;;;;;;;5.70;2.65;;;5.10;99.90;;;;;;4986942;28;20117;-77
2023/03/27 05:25:19;;;;;;;6.57;3.00;;;5.10;99.90;;;;;;4988765;28;20031;-75
2023/03/27 05:27:50;;;;;;;7.85;4.78;;;5.00;99.90;;;;;;4991631;28;20615;-74
2023/03/27 05:30:22;;;;;;;8.13;4.00;;;5.20;99.90;;;;;;4984232;28;20046;-76
2023/03/27 05:32:53;;;;;;;5.88;3.08;;;5.10;99.90;;;;;;4990364;28;20085;-75
2023/03/27 05:35:22;;;;;;;9.20;5.22;;;5.20;99.90;;;;;;4993138;28;20031;-79
2023/03/27 05:37:49;;;;;;;7.10;3.33;;;5.20;99.90;;;;;;4971337;28;20035;-79
2023/03/27 05:40:16;;;;;;;6.65;4.03;;;5.40;99.90;;;;;;4981318;28;20146;-77
2023/03/27 05:42:45;;;;;;;6.18;3.40;;;5.40;99.90;;;;;;4969014;28;20574;-78
2023/03/27 05:45:12;;;;;;;7.78;3.70;;;5.40;99.90;;;;;;4986675;28;20086;-77
2023/03/27 05:47:48;;;;;;;6.10;2.78;;;5.50;99.90;;;;;;4987383;28;20022;-78
2023/03/27 05:50:15;;;;;;;6.30;3.08;;;5.40;99.90;;;;;;4984006;28;20045;-77
2023/03/27 05:52:41;;;;;;;5.00;2.50;;;5.30;99.90;;;;;;4987108;28;20086;-77
2023/03/27 05:55:09;;;;;;;7.50;4.70;;;5.20;99.90;;;;;;4987782;28;20103;-78
2023/03/27 05:57:39;;;;;;;7.57;4.00;;;5.00;99.90;;;;;;4986583;28;20656;-77
2023/03/27 06:00:10;;;;;;;7.50;3.30;;;5.10;99.90;;;;;;4979804;28;20057;-78
2023/03/27 06:02:37;;;;;;;9.15;4.80;;;5.20;99.90;;;;;;4987521;28;20034;-77
2023/03/27 06:05:09;;;;;;;10.38;5.28;;;5.20;99.90;;;;;;4985825;28;20042;-78
2023/03/27 06:07:37;;;;;;;8.18;4.95;;;5.30;99.90;;;;;;4984380;28;20031;-78
2023/03/27 06:10:04;;;;;;;8.02;4.15;;;5.50;99.90;;;;;;4980684;28;20085;-78
2023/03/27 06:12:30;;;;;;;7.47;3.58;;;5.50;99.90;;;;;;4980610;28;20548;-77
2023/03/27 06:14:56;;;;;;;6.75;3.47;;;5.40;99.90;;;;;;4984890;28;20117;-77
2023/03/27 06:17:21;;;;;;;7.18;4.15;;;5.30;99.90;;;;;;4997086;28;20436;-77
2023/03/27 06:19:48;;;;;;;7.55;3.65;;;5.40;99.90;;;;;;4982855;28;20499;-78
2023/03/27 06:22:13;;;;;;;7.05;3.88;;;5.60;99.90;;;;;;4985920;28;20041;-76
2023/03/27 06:24:39;;;;;;;5.32;3.28;;;5.60;99.90;;;;;;4984066;28;20030;-76
2023/03/27 06:27:05;;;;;;;6.78;3.38;;;5.70;99.90;;;;;;4983561;28;20031;-77
2023/03/27 06:29:30;;;;;;;5.57;2.92;;;5.80;99.90;;;;;;4982289;28;20041;-77
2023/03/27 06:32:00;;;;;;;6.43;3.45;;;6.00;99.90;;;;;;4983847;28;20026;-79
2023/03/27 06:34:26;;;;;;;6.57;3.45;;;5.90;99.90;;;;;;4983935;28;20061;-77
2023/03/27 06:36:52;;;;;;;6.25;3.50;;;6.00;99.90;;;;;;4986389;28;20620;-77
2023/03/27 06:39:18;;;;;;;5.10;2.38;;;6.00;99.90;;;;;;4986684;28;20026;-78
2023/03/27 06:41:43;;;;;;;5.15;2.03;;;5.90;99.90;;;;;;4975791;28;20133;-79
2023/03/27 06:44:09;;;;;;;2.95;1.50;;;5.90;99.90;;;;;;4986311;28;20540;-79
2023/03/27 06:46:35;;;;;;;3.13;1.58;;;6.00;99.90;;;;;;4979742;28;20046;-78
2023/03/27 06:49:01;;;;;;;5.65;2.17;;;6.10;99.90;;;;;;4979685;28;20022;-79
2023/03/27 06:51:26;;;;;;;6.05;2.65;;;6.20;99.90;;;;;;4979950;28;20036;-79
2023/03/27 06:53:53;;;;;;;3.40;1.60;;;6.00;99.90;;;;;;4985903;28;20031;-79
2023/03/27 06:56:19;;;;;;;2.90;1.40;;;6.10;99.90;;;;;;4985399;28;20054;-77
2023/03/27 06:58:45;;;;;;;4.38;1.58;;;6.20;99.90;;;;;;4985381;28;20093;-76
2023/03/27 07:01:12;;;;;;;4.75;2.80;;;6.30;99.90;;;;;;4986153;28;20498;-76
2023/03/27 07:03:37;;;;;;;6.50;3.08;;;6.30;99.90;;;;;;4987130;28;20035;-77
2023/03/27 07:06:04;;;;;;;5.80;3.15;;;6.50;99.90;;;;;;4982923;28;20034;-76
2023/03/27 07:08:30;;;;;;;4.25;1.80;;;6.40;99.90;;;;;;4987664;28;20088;-76
2023/03/27 07:10:56;;;;;;;2.30;0.90;;;6.50;99.90;;;;;;4987798;28;20030;-76
2023/03/27 07:13:22;;;;;;;2.00;1.02;;;6.80;99.90;;;;;;4986793;28;20070;-76
2023/03/27 07:15:47;;;;;;;5.20;2.33;;;7.30;99.90;;;;;;4985513;28;20026;-76
2023/03/27 07:18:14;;;;;;;7.57;3.03;;;7.80;99.90;;;;;;4987818;28;20789;-76
2023/03/27 07:20:40;;;;;;;7.13;3.65;;;7.30;99.90;;;;;;4987575;28;20030;-76
2023/03/27 07:23:06;;;;;;;7.63;4.30;;;7.10;99.90;;;;;;4987039;28;20045;-76
2023/03/27 07:25:36;;;;;;;8.60;5.53;;;6.90;99.90;;;;;;4977698;28;20043;-76
2023/03/27 07:28:05;;;;;;;10.10;6.30;;;6.80;99.90;;;;;;4968014;28;20122;-76
2023/03/27 07:30:31;;;;;;;14.10;6.10;;;6.80;99.90;;;;;;4976964;28;20501;-76
2023/03/27 07:32:57;;;;;;;6.65;4.50;;;6.60;99.90;;;;;;4987371;28;20038;-76
2023/03/27 07:35:24;;;;;;;8.57;5.05;;;6.80;99.90;;;;;;4986323;28;20496;-75
2023/03/27 07:37:53;;;;;;;8.70;4.82;;;6.70;99.90;;;;;;4985808;28;20069;-76
2023/03/27 07:40:21;;;;;;;6.60;4.10;;;6.70;99.90;;;;;;4986561;28;20061;-76
2023/03/27 07:42:48;;;;;;;7.63;4.68;;;6.70;99.90;;;;;;4987117;28;20022;-76
2023/03/27 07:45:18;;;;;;;8.55;5.00;;;6.70;99.90;;;;;;4986771;28;20038;-76
2023/03/27 07:47:44;;;;;;;8.52;4.93;;;6.80;99.90;;;;;;4986648;28;20072;-76
2023/03/27 07:50:13;;;;;;;10.88;5.40;;;6.90;99.90;;;;;;4985904;28;20619;-76
2023/03/27 07:52:39;;;;;;;10.18;6.07;;;7.10;99.90;;;;;;4987109;28;20376;-76
2023/03/27 07:55:07;;;;;;;8.00;4.93;;;7.20;99.90;;;;;;4989475;28;20034;-76
2023/03/27 07:57:36;;;;;;;10.65;5.18;;;7.30;99.90;;;;;;4989777;28;20081;-76
2023/03/27 08:00:06;;;;;;;8.73;4.93;;;7.40;99.90;;;;;;4988441;28;20389;-75
2023/03/27 08:02:32;;;;;;;8.05;5.28;;;7.30;99.90;;;;;;4990167;28;20118;-76
2023/03/27 08:04:58;;;;;;;11.55;5.75;;;7.40;99.90;;;;;;4990111;28;20109;-78
2023/03/27 08:07:24;;;;;;;8.50;5.18;;;7.40;99.90;;;;;;4988983;28;20056;-78
2023/03/27 08:09:56;;;;;;;8.00;5.60;;;7.40;99.90;;;;;;4989498;28;20030;-78
2023/03/27 08:12:22;;;;;;;9.60;5.85;;;7.50;99.90;;;;;;4989746;28;20061;-78
2023/03/27 08:14:47;;;;;;;9.65;5.38;;;7.70;99.90;;;;;;4989468;28;20031;-78
2023/03/27 08:17:13;;;;;;;7.88;4.43;;;7.70;99.90;;;;;;4991849;28;20026;-78
2023/03/27 08:19:39;;;;;;;3.58;1.48;;;7.80;99.90;;;;;;4993681;28;20049;-78
2023/03/27 08:22:05;;;;;;;7.55;4.15;;;8.20;99.50;;;;;;4992380;28;20026;-77
2023/03/27 08:24:30;;;;;;;9.00;5.35;;;8.60;99.90;;;;;;4993760;28;20512;-77
2023/03/27 08:26:57;;;;;;;7.60;4.40;;;8.50;99.90;;;;;;4992486;28;20599;-77
2023/03/27 08:29:23;;;;;;;2.60;1.38;;;8.40;99.90;;;;;;4992847;28;20109;-77
2023/03/27 08:31:49;;;;;;;8.80;5.28;;;8.80;99.30;;;;;;4993280;28;20535;-77
2023/03/27 08:34:16;;;;;;;12.10;6.13;;;9.10;99.90;;;;;;4991765;28;20023;-78
2023/03/27 08:36:42;;;;;;;7.85;3.92;;;9.00;99.90;;;;;;4993695;28;20023;-78
2023/03/27 08:39:08;;;;;;;6.38;2.28;;;8.90;99.90;;;;;;4993800;28;20026;-77
2023/03/27 08:41:42;;;;;;;1.75;1.02;;;9.30;99.90;;;;;;4993245;28;20105;-77
2023/03/27 08:44:17;;;;;;;1.48;0.60;;;9.60;97.00;;;;;;4993051;28;20061;-78
2023/03/27 08:46:58;;;;;;;8.90;4.88;;;10.00;93.60;;;;;;4990286;28;20062;-78
2023/03/27 08:49:29;;;;;;;4.63;2.40;;;10.00;99.90;;;;;;4993203;28;20039;-78
2023/03/27 08:52:00;;;;;;;4.32;2.38;;;9.90;99.40;;;;;;4993192;28;20113;-78
2023/03/27 08:54:32;;;;;;;3.50;1.50;;;10.00;94.90;;;;;;4992454;28;20125;-78
2023/03/27 08:56:58;;;;;;;3.15;1.33;;;10.10;96.30;;;;;;4992430;28;20556;-78
2023/03/27 08:59:30;;;;;;;3.50;1.60;;;10.10;95.70;;;;;;4991603;28;20046;-77
2023/03/27 09:02:21;;;;;;;5.72;2.83;;;10.30;94.80;;;;;;4993171;28;20105;-78
2023/03/27 09:04:58;;;;;;;1.58;0.50;;;10.40;94.90;;;;;;4991242;28;20062;-78
2023/03/27 09:07:42;;;;;;;6.10;2.40;;;10.50;93.60;;;;;;4992244;28;21111;-78
2023/03/27 09:10:45;;;;;;;5.50;3.22;;;10.50;96.70;;;;;;4991668;28;20419;-77
2023/03/27 09:13:23;;;;;;;3.38;1.50;;;10.40;98.10;;;;;;4991002;28;20087;-78
2023/03/27 09:16:09;;;;;;;2.95;1.05;;;10.50;96.40;;;;;;4989641;28;20033;-78
2023/03/27 09:18:49;;;;;;;5.85;0.95;;;13.90;93.50;;;;;;4961063;28;20040;-77
2023/03/27 09:21:36;;;;;;;2.03;0.38;;;16.40;88.10;;;;;;4972279;28;20026;-78
2023/03/27 09:24:10;;;;;;;0.60;0.20;;;17.50;83.50;;;;;;4980380;28;20062;-78
2023/03/27 09:26:36;;;;;;;0.65;0.20;;;18.50;81.50;;;;;;4971440;28;20043;-79
2023/03/27 09:29:18;;;;;;;2.13;0.57;;;18.00;78.70;;;;;;4971005;28;20106;-79
2023/03/27 09:31:53;;;;;;;6.20;0.88;;;19.50;80.30;;;;;;4988411;28;20030;-79
2023/03/27 09:34:25;;;;;;;1.20;0.60;;;19.50;79.00;;;;;;4989750;28;20022;-77
2023/03/27 09:36:51;;;;;;;1.52;0.50;;;19.20;74.20;;;;;;4988364;28;20030;-77
2023/03/27 09:39:32;;;;;;;1.08;0.65;;;20.30;75.80;;;;;;4990800;28;20027;-76
2023/03/27 09:42:05;;;;;;;1.65;0.93;;;18.90;76.00;;;;;;4992264;28;20041;-76
2023/03/27 09:44:38;;;;;;;1.48;0.60;;;18.60;76.00;;;;;;4991648;28;20110;-77
2023/03/27 09:47:14;;;;;;;1.17;0.57;;;18.50;77.30;;;;;;4991801;28;20035;-78
2023/03/27 09:49:45;;;;;;;3.05;0.60;;;19.60;74.60;;;;;;4991977;28;20034;-79
2023/03/27 09:52:40;;;;;;;1.65;0.60;;;19.70;75.80;;;;;;4990594;28;20372;-78
2023/03/27 09:55:29;;;;;;;2.25;0.52;;;18.30;76.70;;;;;;4989956;28;20022;-79
2023/03/27 09:58:26;;;;;;;1.90;0.77;;;16.20;78.20;;;;;;4989082;28;20026;-79
2023/03/27 10:01:15;;;;;;;3.65;0.65;;;14.70;80.90;;;;;;4973074;28;20149;-78
2023/03/27 10:04:12;;;;;;;2.22;0.70;;;13.60;85.90;;;;;;4990085;28;20061;-79
2023/03/27 10:07:07;;;;;;;1.80;0.75;;;13.20;82.80;;;;;;4990608;28;20050;-78
2023/03/27 10:09:35;;;;;;;17.65;11.95;;;13.30;85.80;;;;;;4991851;28;20069;-79
2023/03/27 10:12:09;;;;;;;4.13;1.65;;;13.50;84.90;;;;;;4990994;28;20034;-79
2023/03/27 10:14:47;;;;;;;2.75;0.80;;;13.60;84.60;;;;;;4989975;28;20112;-80
2023/03/27 10:17:47;;;;;;;8.65;3.63;;;13.90;83.30;;;;;;4992201;28;20109;-79
2023/03/27 10:20:19;;;;;;;2.80;0.85;;;14.20;84.40;;;;;;4991056;28;20054;-80
2023/03/27 10:22:53;;;;;;;0.90;0.20;;;14.30;83.10;;;;;;4991291;28;20034;-78
2023/03/27 10:25:25;;;;;;;2.83;1.25;;;14.30;84.10;;;;;;4990172;28;20041;-78
2023/03/27 10:27:56;;;;;;;2.03;0.60;;;14.50;84.80;;;;;;4990971;28;20031;-79
2023/03/27 10:30:51;;;;;;;3.38;0.55;;;14.60;82.20;;;;;;4988194;28;20137;-77
2023/03/27 10:33:37;;;;;;;;;;;14.50;81.60;;;;;;4987527;28;20027;-78
2023/03/27 10:36:20;;;;;;;1.40;0.30;;;14.70;80.50;;;;;;4988789;28;19906;-77
2023/03/27 10:39:12;;;;;;;1.98;0.22;;;15.00;81.90;;;;;;4989065;28;20512;-78
2023/03/27 10:42:12;;;;;;;0.55;0.20;;;15.10;80.60;;;;;;4984034;28;20038;-77
2023/03/27 10:44:43;;;;;;;0.63;0.20;;;14.90;76.20;;;;;;4978240;28;20549;-79
2023/03/27 10:50:52;;;;;;;0.05;0.00;;;15.00;73.20;;;;;;4966234;28;20503;-77
2023/03/27 10:57:15;;;;;;;0.10;0.00;;;15.20;71.10;;;;;;4974896;28;20131;-76
2023/03/27 10:59:52;;;;;;;1.70;0.10;;;15.10;69.50;;;;;;4985283;28;20552;-80
2023/03/27 11:02:25;;;;;;;0.25;0.22;;;15.10;69.00;;;;;;4976170;28;20563;-76
2023/03/27 11:05:09;;;;;;;0.45;0.10;;;15.70;69.60;;;;;;4988373;28;20057;-81
2023/03/27 11:08:09;;;;;;;0.10;0.05;;;15.70;69.00;;;;;;4969624;28;20039;-79
2023/03/27 11:10:56;;;;;;;0.20;0.05;;;16.00;69.50;;;;;;4983825;28;20142;-80
2023/03/27 11:13:44;;;;;;;0.60;0.15;;;15.20;66.50;;;;;;4984201;28;20128;-78
2023/03/27 11:16:54;;;;;;;0.10;0.00;;;15.10;66.70;;;;;;4989224;28;20026;-79
2023/03/27 11:19:50;;;;;;;0.00;0.00;;;14.90;67.60;;;;;;4954450;28;20038;-79
2023/03/27 11:22:25;;;;;;;0.57;0.10;;;15.10;66.00;;;;;;4978835;28;20113;-78
2023/03/27 11:25:01;;;;;;;0.00;0.00;;;15.30;67.50;;;;;;4988677;28;20041;-77
2023/03/27 11:27:47;;;;;;;0.30;0.00;;;15.60;66.30;;;;;;4985933;28;20030;-77
2023/03/27 11:30:54;;;;;;;0.10;0.08;;;15.90;65.90;;;;;;4987375;28;20036;-77
2023/03/27 11:33:23;;;;;;;0.95;0.10;;;15.70;65.90;;;;;;4973070;28;20073;-79
2023/03/27 11:36:12;;;;;;;0.30;0.10;;;15.50;65.40;;;;;;4987091;28;20088;-80
2023/03/27 11:38:50;;;;;;;0.00;0.00;;;15.90;66.50;;;;;;4989129;28;20575;-77
2023/03/27 11:41:26;;;;;;;0.17;0.00;;;16.30;66.20;;;;;;4988956;28;20038;-77
2023/03/27 11:44:34;;;;;;;2.05;0.30;;;16.60;67.10;;;;;;4987298;28;20034;-77
2023/03/27 11:47:39;;;;;;;0.00;0.00;;;16.20;63.90;;;;;;4987987;28;20436;-77
2023/03/27 11:50:22;;;;;;;;;;;15.60;64.10;;;;;;4968243;28;20046;-78
2023/03/27 11:53:30;;;;;;;0.80;0.15;;;15.50;62.80;;;;;;4986750;28;19920;-77
2023/03/27 11:56:01;;;;;;;0.80;0.20;;;15.70;63.70;;;;;;4986369;28;20385;-80
2023/03/27 11:59:00;;;;;;;0.35;0.00;;;15.80;63.00;;;;;;4983213;28;20046;-80
2023/03/27 12:01:42;;;;;;;0.20;0.17;;;15.60;60.90;;;;;;4985288;28;20041;-80
2023/03/27 12:04:31;;;;;;;0.10;0.10;;;15.50;61.60;;;;;;4985552;28;20041;-80
2023/03/27 12:07:26;;;;;;;0.22;0.05;;;15.80;62.80;;;;;;4987465;28;20612;-79
2023/03/27 12:09:59;;;;;;;1.90;0.20;;;16.40;64.40;;;;;;4986255;28;20033;-80
2023/03/27 12:12:45;;;;;;;0.28;0.20;;;16.30;62.00;;;;;;4982875;28;20133;-78
2023/03/27 12:15:26;;;;;;;0.10;0.10;;;16.00;62.20;;;;;;4986741;28;20050;-78
2023/03/27 12:18:31;;;;;;;0.10;0.10;;;16.10;63.00;;;;;;4982262;28;20030;-79
2023/03/27 12:21:29;;;;;;;4.47;0.38;;;16.20;60.30;;;;;;4966915;28;20109;-82
2023/03/27 12:24:06;;;;;;;1.75;0.20;;;16.10;64.20;;;;;;4965162;28;20027;-80
2023/03/27 12:26:57;;;;;;;1.95;0.25;;;16.40;64.90;;;;;;4979773;28;20420;-78
2023/03/27 12:29:41;;;;;;;0.22;0.00;;;16.10;58.80;;;;;;4981429;28;20693;-78
2023/03/27 12:32:24;;;;;;;0.00;0.00;;;16.30;60.20;;;;;;4985673;28;20369;-77
2023/03/27 12:34:58;;;;;;;0.20;0.00;;;15.80;58.00;;;;;;4985420;28;20641;-80
2023/03/27 12:37:45;;;;;;;1.65;0.10;;;16.50;60.80;;;;;;4966469;28;20059;-78
2023/03/27 12:40:36;;;;;;;2.10;0.10;;;16.30;60.70;;;;;;4981024;28;20034;-77
2023/03/27 12:43:16;;;;;;;0.43;0.10;;;15.90;62.20;;;;;;4986524;28;20027;-78
2023/03/27 12:46:17;;;;;;;2.00;0.10;;;15.50;57.50;;;;;;4984214;28;20125;-80
2023/03/27 12:49:06;;;;;;;0.00;0.00;;;15.00;56.40;;;;;;4985357;28;20552;-77
2023/03/27 12:51:38;;;;;;;0.93;0.03;;;14.90;58.20;;;;;;4984317;28;20035;-78
2023/03/27 12:54:15;;;;;;;2.33;0.10;;;15.30;59.10;;;;;;4984932;28;20022;-77
2023/03/27 12:56:41;;;;;;;1.00;0.10;;;15.80;60.00;;;;;;4983430;28;20054;-77
2023/03/27 12:59:22;;;;;;;0.22;0.00;;;16.10;61.40;;;;;;4983116;28;20082;-78
2023/03/27 13:01:48;;;;;;;0.00;0.00;;;15.90;60.40;;;;;;4983751;28;20034;-77
2023/03/27 13:04:42;;;;;;;0.57;0.10;;;15.60;59.60;;;;;;4986471;28;20077;-79
2023/03/27 13:07:35;;;;;;;0.82;0.00;;;15.30;59.70;;;;;;4986969;28;20041;-77
2023/03/27 13:10:43;;;;;;;0.52;0.10;;;15.20;60.70;;;;;;4987665;28;20054;-79
2023/03/27 13:13:34;;;;;;;0.20;0.10;;;14.90;60.00;;;;;;4988322;28;20062;-79
2023/03/27 13:16:05;;;;;;;0.10;0.00;;;15.00;59.50;;;;;;4989472;28;20030;-79
2023/03/27 13:19:05;;;;;;;0.60;0.05;;;15.30;58.30;;;;;;4989482;28;20097;-79
2023/03/27 13:22:16;;;;;;;1.73;0.10;;;15.50;58.10;;;;;;4979160;28;20093;-79
2023/03/27 13:25:06;;;;;;;0.00;0.00;;;15.30;58.50;;;;;;4969551;28;20045;-79
2023/03/27 13:27:32;;;;;;;0.95;0.20;;;15.50;59.00;;;;;;4972849;28;20057;-79
2023/03/27 13:29:58;;;;;;;0.20;0.10;;;15.60;57.00;;;;;;4985981;28;20034;-78
2023/03/27 13:32:37;;;;;;;0.15;0.03;;;15.90;60.30;;;;;;4987580;28;20135;-77
2023/03/27 13:35:19;;;;;;;0.00;0.00;;;16.20;62.40;;;;;;4988397;28;20080;-79
2023/03/27 13:37:56;;;;;;;0.30;0.03;;;15.60;58.50;;;;;;4989706;28;20591;-79
2023/03/27 13:40:40;;;;;;;1.02;0.00;;;15.80;61.30;;;;;;4988386;28;20022;-78